createdAt,value
2023-01-17T00:02:34.508Z,97798.75
2023-01-17T00:05:59.467Z,97797.38
2023-01-17T00:09:20.617Z,97808.88
2023-01-17T00:12:25.565Z,97813.00
2023-01-17T00:15:29.484Z,97803.19
2023-01-17T00:18:32.236Z,97798.56
2023-01-17T00:21:53.270Z,97801.84
2023-01-17T00:25:14.659Z,97797.94
2023-01-17T00:28:17.609Z,97792.94
2023-01-17T00:31:20.565Z,97794.22
2023-01-17T00:34:23.099Z,97793.94
2023-01-17T00:37:25.878Z,97804.22
2023-01-17T00:40:28.665Z,97797.84
2023-01-17T00:43:50.366Z,97793.03
2023-01-17T00:47:11.104Z,97788.13
2023-01-17T00:50:33.002Z,97787.31
2023-01-17T00:53:54.149Z,97792.28
2023-01-17T00:57:15.575Z,97794.69
2023-01-17T01:00:37.606Z,97797.50
2023-01-17T01:03:59.691Z,97789.41
2023-01-17T01:07:20.996Z,97790.13
2023-01-17T01:10:42.356Z,97782.22
2023-01-17T01:14:03.464Z,97788.03
2023-01-17T01:17:25.002Z,97786.50
2023-01-17T01:20:46.268Z,97780.38
2023-01-17T01:24:07.768Z,97795.94
2023-01-17T01:27:28.829Z,97795.31
2023-01-17T01:30:51.053Z,97812.59
2023-01-17T01:33:54.036Z,97799.66
2023-01-17T01:36:56.817Z,97807.31
2023-01-17T01:39:59.264Z,97792.78
2023-01-17T01:43:09.204Z,97796.59
2023-01-17T01:46:15.485Z,97796.22
2023-01-17T01:49:21.925Z,97797.03
2023-01-17T01:52:26.045Z,97799.84
2023-01-17T01:55:32.712Z,97803.47
2023-01-17T01:58:37.875Z,97808.28
2023-01-17T02:01:40.926Z,97814.69
2023-01-17T02:04:44.445Z,97802.16
2023-01-17T02:08:07.861Z,97789.94
2023-01-17T02:11:11.285Z,97784.47
2023-01-17T02:14:18.640Z,97775.16
2023-01-17T02:17:50.771Z,97776.13
2023-01-17T02:21:11.800Z,97777.78
2023-01-17T02:24:55.286Z,97759.94
2023-01-17T02:28:21.398Z,97748.12
2023-01-17T02:31:28.191Z,97757.47
2023-01-17T02:34:59.075Z,97755.44
2023-01-17T02:38:27.071Z,97761.31
2023-01-17T02:41:41.870Z,97763.16
2023-01-17T02:44:44.984Z,97759.47
2023-01-17T02:47:47.529Z,97756.41
2023-01-17T02:51:27.148Z,97759.31
2023-01-17T02:54:40.267Z,97744.59
2023-01-17T02:57:48.297Z,97753.41
2023-01-17T03:00:50.923Z,97742.03
2023-01-17T03:04:09.010Z,97733.56
2023-01-17T03:07:16.444Z,97723.75
2023-01-17T03:10:20.524Z,97706.59
2023-01-17T03:13:23.284Z,97688.69
2023-01-17T03:16:28.336Z,97679.50
2023-01-17T03:19:31.414Z,97679.22
2023-01-17T03:22:34.163Z,97684.22
2023-01-17T03:25:36.750Z,97679.84
2023-01-17T03:28:39.583Z,97670.22
2023-01-17T03:31:42.321Z,97675.72
2023-01-17T03:34:45.141Z,97672.91
2023-01-17T03:37:47.747Z,97654.56
2023-01-17T03:40:50.616Z,97643.50
2023-01-17T03:43:53.075Z,97646.81
2023-01-17T03:46:55.819Z,97646.00
2023-01-17T03:49:58.481Z,97631.94
2023-01-17T03:53:01.615Z,97638.84
2023-01-17T03:56:04.178Z,97636.19
2023-01-17T03:59:07.335Z,97631.13
2023-01-17T04:02:10.184Z,97634.56
2023-01-17T04:05:12.980Z,97634.56
2023-01-17T04:08:15.433Z,97619.19
2023-01-17T04:11:18.226Z,97623.59
2023-01-17T04:14:20.733Z,97620.56
2023-01-17T04:17:23.627Z,97632.38
2023-01-17T04:20:35.155Z,97627.75
2023-01-17T04:23:38.004Z,97621.75
2023-01-17T04:26:40.470Z,97619.12
2023-01-17T04:29:45.300Z,97631.53
2023-01-17T04:32:49.150Z,97632.75
2023-01-17T04:35:55.011Z,97628.94
2023-01-17T04:38:57.533Z,97633.75
2023-01-17T04:42:00.385Z,97619.12
2023-01-17T04:45:03.458Z,97626.66
2023-01-17T04:48:07.076Z,97626.44
2023-01-17T04:51:09.625Z,97635.47
2023-01-17T04:54:12.477Z,97621.47
2023-01-17T04:57:18.763Z,97624.63
2023-01-17T05:00:24.047Z,97641.88
2023-01-17T05:03:27.003Z,97636.13
2023-01-17T05:06:29.738Z,97637.13
2023-01-17T05:09:32.327Z,97642.59
2023-01-17T05:12:35.123Z,97638.50
2023-01-17T05:15:37.604Z,97642.41
2023-01-17T05:18:40.356Z,97646.28
2023-01-17T05:21:42.894Z,97646.94
2023-01-17T05:24:48.255Z,97633.31
2023-01-17T05:27:50.900Z,97642.66
2023-01-17T05:30:53.798Z,97640.47
2023-01-17T05:33:56.349Z,97630.09
2023-01-17T05:36:59.268Z,97634.19
2023-01-17T05:40:01.831Z,97637.19
2023-01-17T05:43:04.705Z,97644.81
2023-01-17T05:46:07.250Z,97649.19
2023-01-17T05:49:10.370Z,97653.00
2023-01-17T05:52:12.973Z,97657.16
2023-01-17T05:55:15.761Z,97660.63
2023-01-17T05:58:20.062Z,97673.75
2023-01-17T06:01:23.012Z,97681.81
2023-01-17T06:04:25.873Z,97684.16
2023-01-17T06:07:28.374Z,97690.19
2023-01-17T06:10:32.129Z,97694.72
2023-01-17T06:13:34.657Z,97696.28
2023-01-17T06:16:37.437Z,97706.81
2023-01-17T06:19:40.301Z,97695.38
2023-01-17T06:22:43.047Z,97704.38
2023-01-17T06:25:47.101Z,97699.37
2023-01-17T06:28:49.952Z,97706.56
2023-01-17T06:31:52.466Z,97706.72
2023-01-17T06:34:55.350Z,97703.81
2023-01-17T06:37:59.775Z,97703.62
2023-01-17T06:41:05.739Z,97701.28
2023-01-17T06:44:09.561Z,97715.09
2023-01-17T06:47:12.418Z,97731.75
2023-01-17T06:50:15.737Z,97737.28
2023-01-17T06:53:18.553Z,97744.47
2023-01-17T06:56:21.532Z,97753.31
2023-01-17T06:59:24.913Z,97751.84
2023-01-17T07:02:27.513Z,97761.31
2023-01-17T07:05:30.602Z,97773.03
2023-01-17T07:08:33.255Z,97768.03
2023-01-17T07:11:36.085Z,97774.47
2023-01-17T07:14:38.850Z,97778.13
2023-01-17T07:17:41.701Z,97777.56
2023-01-17T07:20:44.184Z,97780.38
2023-01-17T07:23:48.216Z,97790.78
2023-01-17T07:26:51.334Z,97794.41
2023-01-17T07:29:54.455Z,97787.03
2023-01-17T07:32:57.057Z,97803.09
2023-01-17T07:36:04.368Z,97801.94
2023-01-17T07:39:07.010Z,97808.47
2023-01-17T07:42:09.809Z,97805.22
2023-01-17T07:45:13.780Z,97809.66
2023-01-17T07:48:20.973Z,97820.75
2023-01-17T07:51:23.831Z,97820.03
2023-01-17T07:54:26.639Z,97827.22
2023-01-17T07:57:29.074Z,97843.66
2023-01-17T08:00:31.944Z,97848.09
2023-01-17T08:03:39.781Z,97846.81
2023-01-17T08:06:44.122Z,97857.19
2023-01-17T08:09:49.796Z,97867.53
2023-01-17T08:12:52.535Z,97870.41
2023-01-17T08:15:55.369Z,97875.44
2023-01-17T08:18:57.937Z,97875.88
2023-01-17T08:22:00.673Z,97881.25
2023-01-17T08:25:03.153Z,97885.22
2023-01-17T08:28:06.017Z,97885.69
2023-01-17T08:31:09.981Z,97892.19
2023-01-17T08:34:14.198Z,97894.81
2023-01-17T08:37:16.633Z,97895.81
2023-01-17T08:40:19.764Z,97893.97
2023-01-17T08:43:22.462Z,97907.47
2023-01-17T08:46:25.364Z,97911.13
2023-01-17T08:49:30.541Z,97915.75
2023-01-17T08:52:33.979Z,97918.41
2023-01-17T08:55:39.563Z,97920.81
2023-01-17T08:58:42.540Z,97925.06
2023-01-17T09:01:46.034Z,97927.47
2023-01-17T09:04:49.833Z,97935.84
2023-01-17T09:07:52.378Z,97931.75
2023-01-17T09:10:55.253Z,97925.28
2023-01-17T09:13:57.892Z,97921.38
2023-01-17T09:17:01.059Z,97939.47
2023-01-17T09:20:03.696Z,97952.41
2023-01-17T09:23:06.580Z,97947.06
2023-01-17T09:26:21.342Z,97943.66
2023-01-17T09:29:24.133Z,97940.69
2023-01-17T09:32:26.565Z,97935.31
2023-01-17T09:35:29.349Z,97945.38
2023-01-17T09:38:32.791Z,97942.22
2023-01-17T09:41:47.950Z,97953.63
2023-01-17T09:44:51.676Z,97966.41
2023-01-17T09:47:54.940Z,97969.75
2023-01-17T09:51:01.080Z,97984.16
2023-01-17T09:54:04.738Z,97992.50
2023-01-17T09:57:32.540Z,98000.16
2023-01-17T10:00:51.314Z,98004.03
2023-01-17T10:03:54.086Z,98007.03
2023-01-17T10:07:19.210Z,97998.94
2023-01-17T10:10:42.298Z,98001.31
2023-01-17T10:13:47.883Z,98006.59
2023-01-17T10:17:39.110Z,98010.53
2023-01-17T10:20:53.840Z,98003.44
2023-01-17T10:24:16.591Z,98001.78
2023-01-17T10:27:23.300Z,98002.34
2023-01-17T10:30:36.586Z,98009.88
2023-01-17T10:33:48.610Z,98012.34
2023-01-17T10:37:02.175Z,98001.06
2023-01-17T10:40:24.947Z,97993.25
2023-01-17T10:43:39.954Z,97997.47
2023-01-17T10:47:00.694Z,97997.47
2023-01-17T10:50:05.372Z,97990.66
2023-01-17T10:53:11.060Z,97984.00
2023-01-17T10:56:15.838Z,97972.47
2023-01-17T10:59:34.993Z,97969.06
2023-01-17T11:02:43.123Z,97975.09
2023-01-17T11:05:45.657Z,97973.94
2023-01-17T11:08:56.832Z,97968.38
2023-01-17T11:11:59.420Z,97966.06
2023-01-17T11:15:07.490Z,97961.56
2023-01-17T11:18:16.435Z,97944.31
2023-01-17T11:21:23.330Z,97930.47
2023-01-17T11:24:35.798Z,97937.81
2023-01-17T11:27:40.016Z,97934.38
2023-01-17T11:30:55.665Z,97924.06
2023-01-17T11:34:19.103Z,97927.13
2023-01-17T11:37:22.887Z,97924.09
2023-01-17T11:40:44.564Z,97925.56
2023-01-17T11:44:01.124Z,97908.06
2023-01-17T11:47:15.235Z,97911.34
2023-01-17T11:50:27.104Z,97913.66
2023-01-17T11:53:33.104Z,97909.31
2023-01-17T11:56:36.840Z,97911.53
2023-01-17T11:59:43.430Z,97915.25
2023-01-17T12:02:57.697Z,97913.41
2023-01-17T12:06:10.597Z,97925.09
2023-01-17T12:09:13.091Z,97936.25
2023-01-17T12:12:49.913Z,97953.69
2023-01-17T12:16:23.188Z,97949.41
2023-01-17T12:19:36.589Z,97946.78
2023-01-17T12:22:47.981Z,97955.12
2023-01-17T12:26:43.132Z,97951.88
2023-01-17T12:30:00.409Z,97936.63
2023-01-17T12:33:12.140Z,97941.75
2023-01-17T12:36:33.341Z,97941.09
2023-01-17T12:39:38.372Z,97940.69
2023-01-17T12:42:44.489Z,97933.53
2023-01-17T12:45:48.408Z,97936.41
2023-01-17T12:48:54.448Z,97931.88
2023-01-17T12:52:06.409Z,97936.59
2023-01-17T12:55:20.642Z,97934.06
2023-01-17T12:58:29.301Z,97939.31
2023-01-17T13:01:43.132Z,97938.72
2023-01-17T13:04:58.499Z,97937.84
2023-01-17T13:08:10.744Z,97934.16
2023-01-17T13:11:17.187Z,97940.25
2023-01-17T13:14:20.039Z,97925.38
2023-01-17T13:17:44.922Z,97934.31
2023-01-17T13:21:04.882Z,97932.91
2023-01-17T13:24:13.617Z,97934.84
2023-01-17T13:27:30.779Z,97939.62
2023-01-17T13:31:28.498Z,97947.16
2023-01-17T13:34:37.022Z,97944.72
2023-01-17T13:37:48.611Z,97949.28
2023-01-17T13:40:53.750Z,97952.13
2023-01-17T13:44:15.304Z,97948.41
2023-01-17T13:47:18.031Z,97952.50
2023-01-17T13:50:38.765Z,97939.75
2023-01-17T13:53:41.341Z,97922.53
2023-01-17T13:56:44.117Z,97923.16
2023-01-17T13:59:47.099Z,97925.06
2023-01-17T14:02:51.414Z,97923.44
2023-01-17T14:05:57.463Z,97916.06
2023-01-17T14:09:19.716Z,97898.19
2023-01-17T14:12:22.466Z,97888.88
2023-01-17T14:15:27.153Z,97884.41
2023-01-17T14:18:36.759Z,97873.44
2023-01-17T14:21:39.579Z,97858.81
2023-01-17T14:25:09.991Z,97839.50
2023-01-17T14:28:29.308Z,97842.19
2023-01-17T14:31:32.224Z,97843.87
2023-01-17T14:34:34.903Z,97842.00
2023-01-17T14:37:40.624Z,97828.28
2023-01-17T14:40:51.563Z,97811.31
2023-01-17T14:43:54.487Z,97809.59
2023-01-17T14:46:58.090Z,97799.06
2023-01-17T14:50:30.422Z,97797.38
2023-01-17T14:53:33.935Z,97801.78
2023-01-17T14:56:36.657Z,97800.94
2023-01-17T14:59:39.195Z,97800.84
2023-01-17T15:02:43.674Z,97787.44
2023-01-17T15:05:47.699Z,97782.53
2023-01-17T15:08:54.135Z,97776.06
2023-01-17T15:11:58.078Z,97773.78
2023-01-17T15:15:00.989Z,97778.03
2023-01-17T15:18:26.720Z,97790.03
2023-01-17T15:21:32.097Z,97799.09
2023-01-17T15:24:41.168Z,97788.22
2023-01-17T15:27:44.037Z,97798.34
2023-01-17T15:31:17.938Z,97800.53
2023-01-17T15:34:28.416Z,97780.09
2023-01-17T15:37:33.614Z,97777.97
2023-01-17T15:40:43.566Z,97766.50
2023-01-17T15:43:46.189Z,97780.72
2023-01-17T15:46:48.932Z,97771.78
2023-01-17T15:49:52.175Z,97762.16
2023-01-17T15:52:57.634Z,97752.59
2023-01-17T15:56:00.629Z,97740.41
2023-01-17T15:59:27.808Z,97738.88
2023-01-17T16:02:33.792Z,97738.06
2023-01-17T16:05:42.056Z,97720.22
2023-01-17T16:08:52.116Z,97731.78
2023-01-17T16:11:54.900Z,97730.09
2023-01-17T16:15:11.350Z,97721.34
2023-01-17T16:18:19.344Z,97718.94
2023-01-17T16:21:27.196Z,97721.28
2023-01-17T16:24:31.116Z,97722.13
2023-01-17T16:27:33.635Z,97724.63
2023-01-17T16:30:36.961Z,97723.94
2023-01-17T16:33:42.298Z,97722.13
2023-01-17T16:36:47.105Z,97723.13
2023-01-17T16:39:49.678Z,97711.16
2023-01-17T16:42:52.633Z,97700.34
2023-01-17T16:45:55.844Z,97703.44
2023-01-17T16:49:00.554Z,97701.38
2023-01-17T16:52:03.603Z,97696.66
2023-01-17T16:55:09.153Z,97694.59
2023-01-17T16:58:11.776Z,97694.25
2023-01-17T17:01:16.487Z,97689.69
2023-01-17T17:04:19.268Z,97688.06
2023-01-17T17:07:22.041Z,97687.44
2023-01-17T17:10:25.333Z,97685.41
2023-01-17T17:13:28.205Z,97684.91
2023-01-17T17:16:31.061Z,97683.87
2023-01-17T17:19:34.532Z,97673.31
2023-01-17T17:22:37.515Z,97660.87
2023-01-17T17:25:40.382Z,97655.50
2023-01-17T17:28:42.935Z,97655.13
2023-01-17T17:31:46.149Z,97642.69
2023-01-17T17:34:51.005Z,97641.97
2023-01-17T17:37:54.331Z,97625.94
2023-01-17T17:41:12.366Z,97612.22
2023-01-17T17:44:15.291Z,97617.22
2023-01-17T17:47:17.919Z,97609.13
2023-01-17T17:50:20.881Z,97603.28
2023-01-17T17:53:23.365Z,97589.47
2023-01-17T17:56:26.935Z,97582.56
2023-01-17T17:59:29.981Z,97568.22
2023-01-17T18:02:33.099Z,97558.44
2023-01-17T18:05:35.858Z,97545.00
2023-01-17T18:08:39.483Z,97537.09
2023-01-17T18:11:43.452Z,97529.03
2023-01-17T18:14:45.903Z,97519.88
2023-01-17T18:17:48.770Z,97521.84
2023-01-17T18:20:52.659Z,97500.31
2023-01-17T18:24:01.727Z,97478.25
2023-01-17T18:27:04.515Z,97465.41
2023-01-17T18:30:08.552Z,97456.16
2023-01-17T18:33:13.208Z,97451.66
2023-01-17T18:36:16.129Z,97454.59
2023-01-17T18:39:30.018Z,97448.94
2023-01-17T18:42:32.928Z,97451.28
2023-01-17T18:45:35.695Z,97456.28
2023-01-17T18:48:39.092Z,97464.63
2023-01-17T18:51:46.476Z,97442.97
2023-01-17T18:54:49.645Z,97440.37
2023-01-17T18:57:52.931Z,97428.00
2023-01-17T19:01:10.466Z,97434.97
2023-01-17T19:04:14.324Z,97426.53
2023-01-17T19:07:17.420Z,97418.75
2023-01-17T19:10:20.407Z,97403.56
2023-01-17T19:13:23.530Z,97387.72
2023-01-17T19:16:28.698Z,97383.41
2023-01-17T19:19:31.669Z,97364.94
2023-01-17T19:22:34.297Z,97363.78
2023-01-17T19:25:37.591Z,97363.41
2023-01-17T19:28:42.406Z,97348.78
2023-01-17T19:31:45.673Z,97346.34
2023-01-17T19:34:48.142Z,97334.59
2023-01-17T19:37:53.296Z,97337.34
2023-01-17T19:40:56.526Z,97346.97
2023-01-17T19:44:17.482Z,97349.00
2023-01-17T19:47:20.119Z,97346.53
2023-01-17T19:50:23.106Z,97330.97
2023-01-17T19:53:26.103Z,97323.88
2023-01-17T19:56:29.706Z,97323.28
2023-01-17T19:59:32.336Z,97297.53
2023-01-17T20:02:37.733Z,97296.31
2023-01-17T20:05:40.753Z,97286.72
2023-01-17T20:08:43.714Z,97279.59
2023-01-17T20:11:49.770Z,97266.66
2023-01-17T20:14:54.182Z,97276.03
2023-01-17T20:17:57.670Z,97255.66
2023-01-17T20:21:05.692Z,97233.97
2023-01-17T20:24:10.453Z,97223.19
2023-01-17T20:27:13.117Z,97242.16
2023-01-17T20:30:20.541Z,97232.31
2023-01-17T20:33:24.250Z,97241.09
2023-01-17T20:36:29.046Z,97255.97
2023-01-17T20:39:32.739Z,97261.25
2023-01-17T20:42:36.461Z,97274.56
2023-01-17T20:45:39.107Z,97268.31
2023-01-17T20:48:45.790Z,97257.28
2023-01-17T20:51:48.553Z,97245.97
2023-01-17T20:54:51.806Z,97243.75
2023-01-17T20:57:54.485Z,97235.72
2023-01-17T21:00:58.520Z,97234.87
2023-01-17T21:04:01.205Z,97236.00
2023-01-17T21:07:04.032Z,97231.56
2023-01-17T21:10:07.050Z,97231.16
2023-01-17T21:13:10.195Z,97218.44
2023-01-17T21:16:14.297Z,97216.16
2023-01-17T21:19:17.353Z,97202.56
2023-01-17T21:22:19.846Z,97197.31
2023-01-17T21:25:22.582Z,97170.44
2023-01-17T21:28:27.079Z,97161.22
2023-01-17T21:31:33.441Z,97152.47
2023-01-17T21:34:36.131Z,97141.75
2023-01-17T21:37:41.078Z,97127.13
2023-01-17T21:40:44.548Z,97123.69
2023-01-17T21:43:48.339Z,97142.81
2023-01-17T21:46:56.344Z,97132.72
2023-01-17T21:49:59.367Z,97118.75
2023-01-17T21:53:02.822Z,97086.50
2023-01-17T21:56:26.789Z,97095.19
2023-01-17T21:59:32.374Z,97101.69
2023-01-17T22:02:35.233Z,97124.34
2023-01-17T22:05:38.129Z,97109.16
2023-01-17T22:08:40.698Z,97077.72
2023-01-17T22:11:43.543Z,97079.59
2023-01-17T22:14:46.069Z,97100.75
2023-01-17T22:17:49.794Z,97099.25
2023-01-17T22:20:52.374Z,97100.81
2023-01-17T22:23:57.126Z,97085.69
2023-01-17T22:26:59.701Z,97083.22
2023-01-17T22:30:02.562Z,97061.31
2023-01-17T22:33:05.374Z,97059.75
2023-01-17T22:36:09.468Z,97064.97
2023-01-17T22:39:12.104Z,97073.25
2023-01-17T22:42:16.588Z,97077.75
2023-01-17T22:45:19.241Z,97070.47
2023-01-17T22:48:22.002Z,97081.37
2023-01-17T22:51:26.559Z,97091.47
2023-01-17T22:54:29.316Z,97102.03
2023-01-17T22:57:31.804Z,97094.28
2023-01-17T23:00:35.684Z,97096.09
2023-01-17T23:03:38.963Z,97100.53
2023-01-17T23:06:42.069Z,97113.13
2023-01-17T23:09:44.860Z,97106.78
2023-01-17T23:12:47.631Z,97093.16
2023-01-17T23:16:08.791Z,97103.34
2023-01-17T23:19:23.757Z,97104.22
2023-01-17T23:22:29.070Z,97106.66
2023-01-17T23:25:31.840Z,97112.81
2023-01-17T23:28:34.496Z,97120.81
2023-01-17T23:31:37.404Z,97127.19
2023-01-17T23:34:39.980Z,97123.81
2023-01-17T23:38:01.894Z,97144.97
2023-01-17T23:41:25.350Z,97136.72
2023-01-17T23:44:31.741Z,97134.97
2023-01-17T23:47:34.239Z,97143.94
2023-01-17T23:50:44.477Z,97145.47
2023-01-17T23:53:47.117Z,97130.31
2023-01-17T23:56:49.957Z,97133.59
2023-01-17T23:59:52.458Z,97141.66
